createdAt,value
2022-09-27T00:01:01.257Z,7.77
2022-09-27T00:03:28.857Z,7.38
2022-09-27T00:06:05.872Z,7.41
2022-09-27T00:08:33.435Z,6.47
2022-09-27T00:11:07.469Z,6.90
2022-09-27T00:13:34.305Z,7.67
2022-09-27T00:16:04.805Z,5.54
2022-09-27T00:18:31.577Z,7.08
2022-09-27T00:21:05.093Z,7.26
2022-09-27T00:23:32.468Z,6.06
2022-09-27T00:25:59.137Z,7.43
2022-09-27T00:28:25.802Z,6.27
2022-09-27T00:30:52.702Z,7.22
2022-09-27T00:33:19.372Z,6.32
2022-09-27T00:35:46.097Z,7.27
2022-09-27T00:38:12.979Z,6.98
2022-09-27T00:40:39.631Z,7.22
2022-09-27T00:43:19.193Z,6.78
2022-09-27T00:45:53.501Z,6.66
2022-09-27T00:48:21.966Z,7.29
2022-09-27T00:50:49.620Z,7.15
2022-09-27T00:53:24.224Z,7.23
2022-09-27T00:55:56.143Z,5.77
2022-09-27T00:58:29.533Z,6.60
2022-09-27T01:01:14.360Z,6.84
2022-09-27T01:04:06.128Z,7.04
2022-09-27T01:06:32.694Z,7.11
2022-09-27T01:08:59.424Z,6.87
2022-09-27T01:11:39.878Z,7.23
2022-09-27T01:14:48.196Z,7.06
2022-09-27T01:18:05.658Z,7.40
2022-09-27T01:20:50.845Z,7.38
2022-09-27T01:23:26.647Z,7.37
2022-09-27T01:25:59.371Z,7.38
2022-09-27T01:28:50.322Z,7.37
2022-09-27T01:31:22.728Z,6.79
2022-09-27T01:34:17.011Z,6.50
2022-09-27T01:37:01.313Z,7.15
2022-09-27T01:39:27.822Z,7.29
2022-09-27T01:42:24.256Z,7.26
2022-09-27T01:44:54.482Z,7.25
2022-09-27T01:47:27.229Z,7.04
2022-09-27T01:50:08.755Z,7.10
2022-09-27T01:52:44.895Z,6.67
2022-09-27T01:55:12.274Z,6.11
2022-09-27T01:57:44.085Z,6.66
2022-09-27T02:00:11.405Z,6.90
2022-09-27T02:03:12.424Z,7.14
2022-09-27T02:05:46.714Z,6.90
2022-09-27T02:08:40.125Z,7.09
2022-09-27T02:11:10.177Z,6.59
2022-09-27T02:13:54.728Z,6.35
2022-09-27T02:16:48.480Z,7.00
2022-09-27T02:19:40.150Z,6.99
2022-09-27T02:22:09.342Z,6.95
2022-09-27T02:24:42.777Z,6.93
2022-09-27T02:27:15.476Z,6.49
2022-09-27T02:29:46.463Z,6.64
2022-09-27T02:32:13.072Z,6.63
2022-09-27T02:34:39.842Z,5.00
2022-09-27T02:37:06.402Z,6.13
2022-09-27T02:39:33.299Z,6.25
2022-09-27T02:42:00.214Z,5.51
2022-09-27T02:44:26.837Z,5.60
2022-09-27T02:47:00.371Z,5.95
2022-09-27T02:49:35.067Z,4.59
2022-09-27T02:52:04.767Z,6.90
2022-09-27T02:54:35.324Z,6.89
2022-09-27T02:57:10.332Z,6.60
2022-09-27T03:00:10.573Z,6.84
2022-09-27T03:03:04.394Z,6.78
2022-09-27T03:05:45.869Z,6.59
2022-09-27T03:08:12.602Z,5.82
2022-09-27T03:10:39.276Z,6.09
2022-09-27T03:13:06.012Z,6.08
2022-09-27T03:15:32.639Z,6.58
2022-09-27T03:17:59.594Z,6.66
2022-09-27T03:20:26.219Z,6.39
2022-09-27T03:22:52.812Z,6.30
2022-09-27T03:25:21.474Z,6.72
2022-09-27T03:27:48.235Z,6.63
2022-09-27T03:30:14.839Z,6.70
2022-09-27T03:32:44.982Z,6.78
2022-09-27T03:35:12.413Z,6.85
2022-09-27T03:37:39.437Z,6.22
2022-09-27T03:40:06.659Z,6.36
2022-09-27T03:42:33.435Z,6.31
2022-09-27T03:45:00.006Z,6.20
2022-09-27T03:47:26.558Z,6.05
2022-09-27T03:49:53.212Z,6.24
2022-09-27T03:52:19.774Z,6.32
2022-09-27T03:54:46.464Z,6.71
2022-09-27T03:57:13.367Z,6.49
2022-09-27T03:59:39.957Z,6.21
2022-09-27T04:02:06.544Z,6.20
2022-09-27T04:04:33.179Z,6.09
2022-09-27T04:06:59.726Z,5.81
2022-09-27T04:09:26.375Z,6.18
2022-09-27T04:11:52.996Z,6.36
2022-09-27T04:14:19.787Z,6.17
2022-09-27T04:16:46.610Z,5.70
2022-09-27T04:19:13.380Z,5.30
2022-09-27T04:21:40.051Z,6.10
2022-09-27T04:24:06.684Z,5.93
2022-09-27T04:26:33.374Z,5.45
2022-09-27T04:29:00.026Z,6.58
2022-09-27T04:31:26.602Z,5.38
2022-09-27T04:33:54.723Z,6.23
2022-09-27T04:36:28.138Z,6.28
2022-09-27T04:38:55.727Z,6.33
2022-09-27T04:41:23.392Z,6.22
2022-09-27T04:43:54.198Z,6.75
2022-09-27T04:46:25.078Z,6.71
2022-09-27T04:48:51.701Z,6.61
2022-09-27T04:51:18.432Z,6.70
2022-09-27T04:53:45.116Z,5.88
2022-09-27T04:56:12.695Z,6.27
2022-09-27T04:58:39.406Z,6.48
2022-09-27T05:01:06.288Z,4.87
2022-09-27T05:03:33.044Z,6.55
2022-09-27T05:06:00.716Z,6.80
2022-09-27T05:08:28.507Z,6.60
2022-09-27T05:10:55.165Z,5.34
2022-09-27T05:13:22.360Z,7.04
2022-09-27T05:15:48.981Z,6.81
2022-09-27T05:18:15.701Z,7.44
2022-09-27T05:20:42.254Z,7.27
2022-09-27T05:23:08.857Z,6.91
2022-09-27T05:25:35.682Z,7.36
2022-09-27T05:28:02.491Z,7.07
2022-09-27T05:30:29.116Z,7.35
2022-09-27T05:32:55.701Z,7.79
2022-09-27T05:35:22.394Z,6.91
2022-09-27T05:37:56.423Z,7.67
2022-09-27T05:40:42.289Z,7.80
2022-09-27T05:43:09.263Z,7.72
2022-09-27T05:45:35.922Z,7.74
2022-09-27T05:48:03.265Z,7.73
2022-09-27T05:50:29.915Z,7.69
2022-09-27T05:52:56.580Z,7.68
2022-09-27T05:55:23.225Z,8.10
2022-09-27T05:58:03.259Z,8.12
2022-09-27T06:00:29.880Z,8.25
2022-09-27T06:02:57.439Z,8.60
2022-09-27T06:06:16.930Z,8.85
2022-09-27T06:08:44.105Z,8.41
2022-09-27T06:11:14.662Z,8.98
2022-09-27T06:13:41.409Z,8.35
2022-09-27T06:16:10.105Z,8.14
2022-09-27T06:18:37.180Z,8.61
2022-09-27T06:21:04.195Z,9.16
2022-09-27T06:23:33.705Z,8.58
2022-09-27T06:26:05.098Z,9.16
2022-09-27T06:28:32.349Z,9.47
2022-09-27T06:31:01.127Z,9.62
2022-09-27T06:33:31.155Z,9.49
2022-09-27T06:35:57.810Z,8.90
2022-09-27T06:38:25.983Z,8.95
2022-09-27T06:40:52.931Z,9.92
2022-09-27T06:43:20.670Z,10.07
2022-09-27T06:45:47.527Z,10.30
2022-09-27T06:48:14.918Z,10.25
2022-09-27T06:50:44.141Z,9.36
2022-09-27T06:53:11.879Z,10.23
2022-09-27T06:55:38.798Z,11.15
2022-09-27T06:58:24.000Z,11.36
2022-09-27T07:00:53.821Z,11.48
2022-09-27T07:03:23.089Z,11.38
2022-09-27T07:05:57.072Z,11.63
2022-09-27T07:08:26.397Z,11.67
2022-09-27T07:10:54.804Z,11.84
2022-09-27T07:13:21.775Z,12.18
2022-09-27T07:15:48.408Z,12.01
2022-09-27T07:18:15.209Z,12.37
2022-09-27T07:20:41.883Z,12.04
2022-09-27T07:23:09.846Z,11.93
2022-09-27T07:25:36.717Z,12.44
2022-09-27T07:28:05.440Z,12.73
2022-09-27T07:30:32.610Z,11.63
2022-09-27T07:33:04.886Z,12.70
2022-09-27T07:35:31.566Z,13.05
2022-09-27T07:37:59.015Z,13.08
2022-09-27T07:40:26.944Z,12.31
2022-09-27T07:42:57.379Z,13.03
2022-09-27T07:45:24.774Z,12.60
2022-09-27T07:47:51.491Z,12.80
2022-09-27T07:50:18.255Z,13.38
2022-09-27T07:52:46.365Z,12.21
2022-09-27T07:55:14.366Z,12.37
2022-09-27T07:57:41.409Z,13.01
2022-09-27T08:00:10.293Z,12.97
2022-09-27T08:02:37.774Z,13.53
2022-09-27T08:05:04.772Z,13.56
2022-09-27T08:08:03.821Z,11.53
2022-09-27T08:10:31.814Z,13.11
2022-09-27T08:12:59.674Z,13.59
2022-09-27T08:15:28.583Z,12.42
2022-09-27T08:17:55.587Z,12.61
2022-09-27T08:20:22.276Z,12.89
2022-09-27T08:22:48.952Z,13.02
2022-09-27T08:25:15.777Z,13.48
2022-09-27T08:27:42.465Z,12.81
2022-09-27T08:30:09.535Z,13.32
2022-09-27T08:32:37.211Z,13.45
2022-09-27T08:35:04.297Z,12.26
2022-09-27T08:37:30.930Z,13.28
2022-09-27T08:39:57.877Z,13.43
2022-09-27T08:42:24.418Z,13.71
2022-09-27T08:45:03.350Z,13.06
2022-09-27T08:47:43.972Z,13.75
2022-09-27T08:50:27.200Z,13.60
2022-09-27T08:52:58.160Z,13.80
2022-09-27T08:55:37.007Z,13.87
2022-09-27T08:58:15.722Z,11.55
2022-09-27T09:00:49.091Z,13.92
2022-09-27T09:03:36.513Z,14.00
2022-09-27T09:06:22.163Z,12.32
2022-09-27T09:09:23.136Z,14.11
2022-09-27T09:16:22.547Z,11.60
2022-09-27T09:19:19.303Z,12.26
2022-09-27T09:21:59.053Z,14.23
2022-09-27T09:25:21.855Z,12.95
2022-09-27T09:28:10.322Z,12.28
2022-09-27T09:31:10.763Z,14.31
2022-09-27T09:34:29.039Z,12.19
2022-09-27T09:37:28.285Z,12.94
2022-09-27T09:40:02.322Z,11.15
2022-09-27T09:43:10.651Z,11.80
2022-09-27T09:46:03.228Z,12.21
2022-09-27T09:48:38.237Z,14.26
2022-09-27T09:51:11.958Z,14.23
2022-09-27T09:53:45.668Z,10.71
2022-09-27T09:56:21.469Z,12.84
2022-09-27T09:59:07.170Z,13.38
2022-09-27T10:01:53.416Z,11.55
2022-09-27T10:04:33.272Z,11.57
2022-09-27T10:07:04.859Z,11.28
2022-09-27T10:09:33.817Z,11.49
2022-09-27T10:12:09.463Z,11.79
2022-09-27T10:14:43.335Z,13.25
2022-09-27T10:17:34.967Z,13.56
2022-09-27T10:20:09.491Z,11.42
2022-09-27T10:22:38.599Z,11.53
2022-09-27T10:25:09.875Z,11.31
2022-09-27T10:28:04.078Z,11.50
2022-09-27T10:30:32.647Z,10.29
2022-09-27T10:33:08.262Z,11.82
2022-09-27T10:35:41.664Z,11.08
2022-09-27T10:38:37.558Z,13.58
2022-09-27T10:41:26.174Z,10.04
2022-09-27T10:43:53.229Z,12.11
2022-09-27T10:46:33.748Z,12.67
2022-09-27T10:49:09.717Z,13.46
2022-09-27T10:51:36.391Z,12.92
2022-09-27T10:54:03.029Z,13.13
2022-09-27T10:56:33.955Z,12.48
2022-09-27T10:59:00.655Z,12.45
2022-09-27T11:01:27.680Z,12.49
2022-09-27T11:03:58.569Z,13.07
2022-09-27T11:06:25.092Z,13.51
2022-09-27T11:08:52.287Z,12.86
2022-09-27T11:11:28.619Z,11.88
2022-09-27T11:14:05.101Z,13.40
2022-09-27T11:16:37.774Z,13.28
2022-09-27T11:19:15.519Z,12.86
2022-09-27T11:22:01.371Z,12.53
2022-09-27T11:24:30.809Z,11.95
2022-09-27T11:27:13.021Z,11.17
2022-09-27T11:29:50.752Z,11.98
2022-09-27T11:32:48.680Z,11.05
2022-09-27T11:35:21.532Z,11.69
2022-09-27T11:37:48.073Z,11.62
2022-09-27T11:40:25.670Z,11.31
2022-09-27T11:43:05.775Z,9.44
2022-09-27T11:46:16.555Z,11.53
2022-09-27T11:49:00.259Z,10.56
2022-09-27T11:51:30.003Z,11.61
2022-09-27T11:54:20.494Z,11.64
2022-09-27T11:56:50.257Z,11.34
2022-09-27T11:59:58.680Z,11.77
2022-09-27T12:02:56.201Z,11.79
2022-09-27T12:05:58.102Z,11.81
2022-09-27T12:08:38.549Z,11.84
2022-09-27T12:11:13.577Z,11.85
2022-09-27T12:13:41.821Z,11.84
2022-09-27T12:16:08.442Z,11.41
2022-09-27T12:18:41.967Z,10.67
2022-09-27T12:21:09.726Z,10.77
2022-09-27T12:23:44.093Z,11.72
2022-09-27T12:26:26.295Z,10.05
2022-09-27T12:28:57.885Z,11.39
2022-09-27T12:31:30.442Z,10.78
2022-09-27T12:34:20.109Z,11.20
2022-09-27T12:37:03.294Z,11.57
2022-09-27T12:39:57.798Z,11.29
2022-09-27T12:42:27.532Z,11.16
2022-09-27T12:44:54.171Z,10.48
2022-09-27T12:47:55.487Z,11.53
2022-09-27T12:50:30.286Z,10.88
2022-09-27T12:53:13.161Z,11.41
2022-09-27T12:56:11.797Z,11.52
2022-09-27T12:58:44.234Z,11.51
2022-09-27T13:01:19.851Z,11.54
2022-09-27T13:04:03.560Z,11.54
2022-09-27T13:06:39.217Z,11.59
2022-09-27T13:09:19.378Z,11.51
2022-09-27T13:12:19.481Z,11.63
2022-09-27T13:15:01.257Z,11.65
2022-09-27T13:17:46.326Z,11.23
2022-09-27T13:20:28.256Z,11.74
2022-09-27T13:22:55.128Z,10.71
2022-09-27T13:25:51.658Z,11.82
2022-09-27T13:28:28.193Z,11.88
2022-09-27T13:31:04.408Z,11.95
2022-09-27T13:33:41.705Z,12.04
2022-09-27T13:36:21.858Z,11.88
2022-09-27T13:39:11.408Z,12.25
2022-09-27T13:41:50.518Z,12.38
2022-09-27T13:44:54.722Z,12.42
2022-09-27T13:47:37.731Z,11.79
2022-09-27T13:50:14.305Z,11.93
2022-09-27T13:52:43.146Z,11.71
2022-09-27T13:55:37.800Z,12.54
2022-09-27T13:58:12.764Z,12.17
2022-09-27T14:00:39.956Z,12.59
2022-09-27T14:03:35.733Z,12.39
2022-09-27T14:06:07.845Z,12.62
2022-09-27T14:08:36.316Z,11.42
2022-09-27T14:11:03.945Z,12.05
2022-09-27T14:13:32.156Z,12.23
2022-09-27T14:16:00.210Z,12.66
2022-09-27T14:18:26.799Z,12.67
2022-09-27T14:20:54.137Z,11.75
2022-09-27T14:23:25.067Z,11.72
2022-09-27T14:25:53.286Z,10.54
2022-09-27T14:28:20.691Z,12.74
2022-09-27T14:30:47.814Z,12.55
2022-09-27T14:33:31.624Z,11.18
2022-09-27T14:36:20.444Z,12.07
2022-09-27T14:38:49.645Z,12.16
2022-09-27T14:41:16.314Z,12.32
2022-09-27T14:43:44.216Z,11.84
2022-09-27T14:46:30.897Z,12.73
2022-09-27T14:48:57.997Z,12.32
2022-09-27T14:51:30.587Z,12.23
2022-09-27T14:54:00.710Z,12.48
2022-09-27T14:56:40.003Z,12.19
2022-09-27T14:59:12.882Z,12.76
2022-09-27T15:01:40.211Z,10.34
2022-09-27T15:04:08.053Z,11.21
2022-09-27T15:06:38.020Z,11.79
2022-09-27T15:09:05.529Z,12.60
2022-09-27T15:11:33.291Z,12.06
2022-09-27T15:14:01.868Z,12.24
2022-09-27T15:16:28.869Z,11.73
2022-09-27T15:18:59.701Z,12.03
2022-09-27T15:21:34.133Z,11.65
2022-09-27T15:24:01.924Z,12.16
2022-09-27T15:26:42.683Z,11.72
2022-09-27T15:29:19.770Z,11.42
2022-09-27T15:31:46.589Z,11.87
2022-09-27T15:34:17.941Z,10.66
2022-09-27T15:36:44.539Z,12.04
2022-09-27T15:39:12.524Z,10.27
2022-09-27T15:42:08.004Z,11.97
2022-09-27T15:45:06.284Z,9.51
2022-09-27T15:47:45.055Z,11.88
2022-09-27T15:50:17.626Z,11.85
2022-09-27T15:52:55.708Z,11.81
2022-09-27T15:55:27.082Z,11.05
2022-09-27T15:57:59.443Z,11.50
2022-09-27T16:00:26.591Z,11.37
2022-09-27T16:02:53.939Z,11.24
2022-09-27T16:05:47.464Z,11.75
2022-09-27T16:08:14.056Z,11.32
2022-09-27T16:10:43.129Z,11.09
2022-09-27T16:13:09.726Z,11.28
2022-09-27T16:15:36.480Z,10.10
2022-09-27T16:18:03.498Z,11.32
2022-09-27T16:20:31.936Z,10.79
2022-09-27T16:22:58.660Z,11.29
2022-09-27T16:25:25.307Z,11.05
2022-09-27T16:27:52.604Z,10.07
2022-09-27T16:30:20.699Z,10.08
2022-09-27T16:32:48.322Z,10.56
2022-09-27T16:35:16.028Z,10.13
2022-09-27T16:37:42.677Z,10.80
2022-09-27T16:40:10.116Z,10.24
2022-09-27T16:42:37.052Z,10.23
2022-09-27T16:45:09.535Z,9.49
2022-09-27T16:47:37.763Z,10.65
2022-09-27T16:50:23.264Z,10.72
2022-09-27T16:52:50.289Z,10.86
2022-09-27T16:55:21.143Z,10.77
2022-09-27T16:57:52.049Z,11.02
2022-09-27T17:00:18.802Z,10.87
2022-09-27T17:02:48.614Z,10.74
2022-09-27T17:05:15.731Z,10.54
2022-09-27T17:07:42.526Z,10.84
2022-09-27T17:10:09.612Z,10.57
2022-09-27T17:12:36.238Z,10.59
2022-09-27T17:15:02.862Z,9.00
2022-09-27T17:17:29.468Z,9.86
2022-09-27T17:19:56.161Z,10.20
2022-09-27T17:22:22.788Z,10.67
2022-09-27T17:24:49.413Z,10.51
2022-09-27T17:27:16.146Z,8.40
2022-09-27T17:29:42.801Z,10.14
2022-09-27T17:32:09.432Z,9.08
2022-09-27T17:34:36.565Z,10.18
2022-09-27T17:37:03.190Z,10.40
2022-09-27T17:39:29.830Z,10.38
2022-09-27T17:41:56.616Z,10.42
2022-09-27T17:44:23.913Z,10.39
2022-09-27T17:47:10.582Z,10.40
2022-09-27T17:49:55.476Z,10.28
2022-09-27T17:52:23.618Z,10.39
2022-09-27T17:54:51.786Z,10.40
2022-09-27T17:57:18.380Z,9.89
2022-09-27T17:59:45.022Z,10.33
2022-09-27T18:02:11.751Z,9.50
2022-09-27T18:04:38.411Z,10.25
2022-09-27T18:07:05.299Z,10.50
2022-09-27T18:09:32.233Z,9.99
2022-09-27T18:11:58.844Z,10.47
2022-09-27T18:14:26.717Z,9.37
2022-09-27T18:17:00.902Z,10.29
2022-09-27T18:19:28.069Z,7.36
2022-09-27T18:21:58.073Z,7.90
2022-09-27T18:24:35.033Z,7.30
2022-09-27T18:27:07.067Z,7.35
2022-09-27T18:29:36.536Z,8.74
2022-09-27T18:32:54.859Z,8.50
2022-09-27T18:35:30.373Z,8.16
2022-09-27T18:37:59.545Z,8.95
2022-09-27T18:40:51.456Z,8.84
2022-09-27T18:43:25.843Z,8.86
2022-09-27T18:45:59.086Z,8.10
2022-09-27T18:48:39.647Z,8.09
2022-09-27T18:51:14.664Z,9.90
2022-09-27T18:53:44.512Z,10.60
2022-09-27T18:56:14.130Z,8.66
2022-09-27T18:58:42.520Z,7.67
2022-09-27T19:01:18.292Z,9.64
2022-09-27T19:03:49.468Z,9.54
2022-09-27T19:06:32.767Z,8.64
2022-09-27T19:08:59.844Z,7.95
2022-09-27T19:18:39.159Z,8.53
2022-09-27T19:21:10.341Z,8.39
2022-09-27T19:23:39.974Z,7.89
2022-09-27T19:26:07.641Z,8.49
2022-09-27T19:28:43.798Z,9.61
2022-09-27T19:31:15.466Z,8.71
2022-09-27T19:33:45.107Z,8.45
2022-09-27T19:36:12.999Z,9.01
2022-09-27T19:38:42.097Z,8.19
2022-09-27T19:41:18.605Z,7.73
2022-09-27T19:43:56.186Z,7.95
2022-09-27T19:46:28.358Z,8.65
2022-09-27T19:52:46.691Z,8.59
2022-09-27T19:55:13.420Z,9.67
2022-09-27T19:57:40.217Z,9.20
2022-09-27T20:00:07.838Z,10.04
2022-09-27T20:02:34.632Z,9.32
2022-09-27T20:05:01.349Z,9.33
2022-09-27T20:07:28.053Z,9.00
2022-09-27T20:09:54.846Z,9.75
2022-09-27T20:12:21.469Z,8.18
2022-09-27T20:14:48.173Z,9.08
2022-09-27T20:17:14.850Z,9.49
2022-09-27T20:19:41.549Z,8.79
2022-09-27T20:26:03.950Z,9.56
2022-09-27T20:28:30.661Z,8.80
2022-09-27T20:31:03.164Z,10.14
2022-09-27T20:33:42.384Z,9.82
2022-09-27T20:36:13.695Z,10.38
2022-09-27T20:38:44.804Z,10.19
2022-09-27T20:41:12.079Z,10.28
2022-09-27T20:43:38.878Z,8.77
2022-09-27T20:46:07.901Z,10.30
2022-09-27T20:48:34.595Z,9.58
2022-09-27T20:51:04.788Z,9.99
2022-09-27T20:53:31.923Z,10.43
2022-09-27T20:55:59.520Z,10.43
2022-09-27T20:58:26.244Z,9.93
2022-09-27T21:00:52.994Z,10.34
2022-09-27T21:03:21.850Z,9.98
2022-09-27T21:05:58.368Z,9.82
2022-09-27T21:08:25.149Z,8.13
2022-09-27T21:10:53.926Z,9.46
2022-09-27T21:13:21.175Z,9.59
2022-09-27T21:15:47.885Z,9.41
2022-09-27T21:18:14.604Z,9.99
2022-09-27T21:20:41.285Z,9.05
2022-09-27T21:23:08.050Z,9.66
2022-09-27T21:25:34.690Z,9.63
2022-09-27T21:28:04.232Z,9.70
2022-09-27T21:30:31.429Z,9.33
2022-09-27T21:32:58.078Z,9.75
2022-09-27T21:35:24.676Z,9.78
2022-09-27T21:37:51.306Z,10.06
2022-09-27T21:40:18.023Z,10.00
2022-09-27T21:42:44.692Z,9.75
2022-09-27T21:45:11.757Z,9.66
2022-09-27T21:47:38.348Z,9.74
2022-09-27T21:50:05.278Z,9.03
2022-09-27T21:52:31.903Z,9.02
2022-09-27T21:54:58.471Z,9.23
2022-09-27T21:57:25.694Z,9.42
2022-09-27T21:59:52.326Z,9.24
2022-09-27T22:02:19.748Z,9.04
2022-09-27T22:04:48.983Z,9.61
2022-09-27T22:07:16.100Z,9.15
2022-09-27T22:09:42.734Z,9.18
2022-09-27T22:12:09.764Z,7.79
2022-09-27T22:14:36.438Z,8.96
2022-09-27T22:17:03.048Z,7.73
2022-09-27T22:19:29.666Z,7.10
2022-09-27T22:21:56.259Z,8.34
2022-09-27T22:24:23.677Z,7.89
2022-09-27T22:26:50.881Z,6.91
2022-09-27T22:29:17.609Z,7.69
2022-09-27T22:31:44.368Z,8.49
2022-09-27T22:34:20.870Z,7.96
2022-09-27T22:36:47.476Z,7.95
2022-09-27T22:39:14.221Z,6.95
2022-09-27T22:41:40.908Z,7.66
2022-09-27T22:44:08.587Z,6.38
2022-09-27T22:46:35.648Z,7.40
2022-09-27T22:49:02.356Z,7.06
2022-09-27T22:51:29.154Z,6.76
2022-09-27T22:53:56.156Z,7.03
2022-09-27T22:56:22.800Z,6.87
2022-09-27T22:58:49.506Z,6.13
2022-09-27T23:01:19.513Z,6.79
2022-09-27T23:03:47.178Z,5.67
2022-09-27T23:06:14.625Z,6.98
2022-09-27T23:08:41.553Z,6.45
2022-09-27T23:11:26.302Z,6.07
2022-09-27T23:13:52.979Z,6.17
2022-09-27T23:16:25.436Z,5.68
2022-09-27T23:18:53.714Z,6.53
2022-09-27T23:21:20.374Z,6.85
2022-09-27T23:23:47.193Z,6.66
2022-09-27T23:26:14.839Z,6.68
2022-09-27T23:28:41.511Z,6.49
2022-09-27T23:31:13.542Z,6.38
2022-09-27T23:33:42.079Z,6.07
2022-09-27T23:36:10.502Z,5.79
2022-09-27T23:38:37.856Z,4.98
2022-09-27T23:41:04.520Z,6.88
2022-09-27T23:43:31.170Z,5.92
2022-09-27T23:45:57.798Z,6.20
2022-09-27T23:48:25.559Z,5.61
2022-09-27T23:50:52.475Z,4.90
2022-09-27T23:53:19.936Z,5.81
2022-09-27T23:56:16.093Z,6.92
2022-09-27T23:58:44.004Z,5.40
